In Amenas, Algeria
Current Conditions -  °F | °C
As of 8:00 PM on Thursday 18 Dec 2014 (Local Time) from DAUZ Reporting Station
Clear Clear  
Wind Chill: 11°   Ceiling: Unl
Heat Index: 11°   Visibility: 6mi
Dew Point: -4°   Wind: 7mph
Humidity: 35%   Direction: 330°NNW
Pressure: 30.18"   Gusts: NA
Location:  28.05°N, 9.56°E
Report Text: DAUZ 181900Z 33006KT CAVOK 11/M04 Q1022
Loading
Personal Weather Stations






























Interactive Weather Map New forecast layout! Learn more

10-Day Weather Forecast

Advertisements
Track Severe Weather on mobile